createdAt,value
2019-05-19T00:01:51.886Z,27.02
2019-05-19T00:04:21.170Z,28.55
2019-05-19T00:06:50.453Z,26.10
2019-05-19T00:09:19.646Z,24.37
2019-05-19T00:11:48.783Z,23.57
2019-05-19T00:14:18.161Z,26.68
2019-05-19T00:16:47.361Z,24.30
2019-05-19T00:19:26.219Z,27.67
2019-05-19T00:21:47.281Z,31.85
2019-05-19T00:24:16.467Z,26.52
2019-05-19T00:26:45.760Z,29.95
2019-05-19T00:29:14.951Z,27.30
2019-05-19T00:31:44.181Z,32.45
2019-05-19T00:34:13.282Z,26.87
2019-05-19T00:36:42.588Z,28.65
2019-05-19T00:39:11.848Z,30.88
2019-05-19T00:41:41.007Z,28.35
2019-05-19T00:44:10.304Z,29.57
2019-05-19T00:46:39.521Z,28.98
2019-05-19T00:49:08.801Z,29.07
2019-05-19T00:51:38.801Z,30.95
2019-05-19T00:54:08.091Z,26.95
2019-05-19T00:56:37.803Z,27.60
2019-05-19T00:59:07.884Z,26.45
2019-05-19T01:01:37.179Z,23.20
2019-05-19T01:04:06.425Z,26.10
2019-05-19T01:06:35.739Z,25.77
2019-05-19T01:09:06.675Z,22.27
2019-05-19T01:11:35.855Z,23.38
2019-05-19T01:14:05.463Z,25.88
2019-05-19T01:16:34.728Z,25.12
2019-05-19T01:19:04.008Z,25.60
2019-05-19T01:21:34.100Z,24.70
2019-05-19T01:24:03.397Z,23.80
2019-05-19T01:26:32.660Z,26.33
2019-05-19T01:29:01.951Z,23.12
2019-05-19T01:31:31.155Z,26.20
2019-05-19T01:34:00.419Z,27.13
2019-05-19T01:36:29.710Z,25.62
2019-05-19T01:38:58.909Z,23.02
2019-05-19T01:41:28.170Z,25.20
2019-05-19T01:43:57.395Z,26.25
2019-05-19T01:46:26.673Z,26.52
2019-05-19T01:48:55.884Z,24.87
2019-05-19T01:51:25.203Z,22.22
2019-05-19T01:53:54.363Z,23.83
2019-05-19T01:56:23.488Z,24.80
2019-05-19T01:58:52.718Z,24.32
2019-05-19T02:01:22.050Z,22.62
2019-05-19T02:03:51.273Z,21.50
2019-05-19T02:06:20.558Z,24.57
2019-05-19T02:08:49.715Z,22.93
2019-05-19T02:11:18.914Z,23.45
2019-05-19T02:13:48.148Z,24.72
2019-05-19T02:16:17.391Z,23.27
2019-05-19T02:18:46.611Z,22.22
2019-05-19T02:21:15.827Z,21.73
2019-05-19T02:23:45.122Z,23.40
2019-05-19T02:26:14.373Z,24.07
2019-05-19T02:28:43.688Z,20.40
2019-05-19T02:31:12.888Z,24.18
2019-05-19T02:33:42.196Z,23.25
2019-05-19T02:36:11.474Z,25.57
2019-05-19T02:38:40.640Z,24.63
2019-05-19T02:41:12.471Z,26.70
2019-05-19T02:43:42.247Z,25.45
2019-05-19T02:46:12.120Z,28.05
2019-05-19T02:48:42.336Z,27.77
2019-05-19T02:51:13.423Z,27.47
2019-05-19T02:53:44.402Z,26.00
2019-05-19T02:56:14.468Z,28.40
2019-05-19T02:58:44.552Z,23.18
2019-05-19T03:01:13.759Z,28.92
2019-05-19T03:03:43.031Z,28.52
2019-05-19T03:06:12.321Z,29.30
2019-05-19T03:08:41.540Z,34.65
2019-05-19T03:11:10.743Z,26.85
2019-05-19T03:13:39.879Z,27.30
2019-05-19T03:16:08.996Z,25.92
2019-05-19T03:18:38.224Z,27.52
2019-05-19T03:21:10.989Z,27.98
2019-05-19T03:23:38.392Z,28.92
2019-05-19T03:26:07.595Z,28.90
2019-05-19T03:28:36.776Z,25.40
2019-05-19T03:31:19.644Z,25.08
2019-05-19T03:33:50.433Z,28.25
2019-05-19T03:36:19.636Z,22.95
2019-05-19T03:38:48.885Z,27.98
2019-05-19T03:41:18.020Z,24.10
2019-05-19T03:43:47.241Z,23.92
2019-05-19T03:46:16.480Z,22.90
2019-05-19T03:48:45.691Z,21.05
2019-05-19T03:51:29.386Z,24.30
2019-05-19T03:53:45.723Z,22.35
2019-05-19T03:56:15.237Z,21.65
2019-05-19T03:58:44.435Z,24.67
2019-05-19T04:01:13.636Z,23.90
2019-05-19T04:03:42.846Z,21.50
2019-05-19T04:06:12.480Z,20.45
2019-05-19T04:08:42.320Z,20.43
2019-05-19T04:11:11.556Z,19.02
2019-05-19T04:13:40.668Z,22.50
2019-05-19T04:16:09.885Z,20.12
2019-05-19T04:18:39.125Z,24.25
2019-05-19T04:21:08.442Z,20.17
2019-05-19T04:23:37.633Z,23.20
2019-05-19T04:26:06.845Z,20.85
2019-05-19T04:28:35.961Z,20.65
2019-05-19T04:31:05.093Z,24.98
2019-05-19T04:33:34.333Z,21.15
2019-05-19T04:36:03.614Z,18.82
2019-05-19T04:38:32.794Z,19.00
2019-05-19T04:41:01.935Z,24.50
2019-05-19T04:43:31.145Z,28.02
2019-05-19T04:46:00.422Z,30.43
2019-05-19T04:48:29.740Z,31.77
2019-05-19T04:50:58.974Z,26.33
2019-05-19T04:53:28.162Z,26.37
2019-05-19T04:55:57.465Z,22.00
2019-05-19T04:58:26.658Z,22.17
2019-05-19T05:00:55.811Z,18.92
2019-05-19T05:03:25.137Z,19.30
2019-05-19T05:05:54.413Z,20.15
2019-05-19T05:08:29.946Z,16.07
2019-05-19T05:10:54.475Z,16.42
2019-05-19T05:13:23.689Z,16.70
2019-05-19T05:15:52.905Z,16.42
2019-05-19T05:18:22.038Z,20.23
2019-05-19T05:20:51.217Z,22.82
2019-05-19T05:23:20.325Z,13.30
2019-05-19T05:25:49.600Z,15.88
2019-05-19T05:28:18.870Z,14.78
2019-05-19T05:30:48.044Z,16.40
2019-05-19T05:33:17.170Z,15.78
2019-05-19T05:35:46.446Z,12.70
2019-05-19T05:38:15.576Z,16.90
2019-05-19T05:40:44.775Z,24.15
2019-05-19T05:43:13.973Z,17.57
2019-05-19T05:45:43.256Z,16.02
2019-05-19T05:48:12.508Z,12.20
2019-05-19T05:50:41.687Z,12.90
2019-05-19T05:53:10.943Z,14.65
2019-05-19T05:55:40.150Z,14.18
2019-05-19T05:58:09.270Z,16.00
2019-05-19T06:00:38.502Z,14.53
2019-05-19T06:03:07.644Z,15.38
2019-05-19T06:05:36.918Z,13.40
2019-05-19T06:08:06.086Z,14.85
2019-05-19T06:10:35.261Z,15.72
2019-05-19T06:13:04.527Z,21.77
2019-05-19T06:15:33.796Z,12.30
2019-05-19T06:18:03.080Z,9.85
2019-05-19T06:20:32.316Z,9.80
2019-05-19T06:23:01.454Z,12.20
2019-05-19T06:25:30.762Z,14.70
2019-05-19T06:27:59.913Z,11.63
2019-05-19T06:30:29.167Z,14.50
2019-05-19T06:32:59.776Z,14.85
2019-05-19T06:35:29.014Z,11.05
2019-05-19T06:38:31.685Z,14.98
2019-05-19T06:41:00.864Z,10.38
2019-05-19T06:43:30.052Z,13.05
2019-05-19T06:46:01.215Z,9.38
2019-05-19T06:51:08.707Z,12.60
2019-05-19T06:53:38.126Z,12.90
2019-05-19T06:56:07.318Z,10.58
2019-05-19T06:58:36.493Z,10.45
2019-05-19T07:01:05.714Z,10.15
2019-05-19T07:03:35.049Z,12.85
2019-05-19T07:06:04.408Z,9.20
2019-05-19T07:08:33.579Z,11.00
2019-05-19T07:11:02.852Z,9.35
2019-05-19T07:13:31.960Z,10.18
2019-05-19T07:16:01.243Z,9.68
2019-05-19T07:18:30.645Z,8.03
2019-05-19T07:20:59.808Z,12.35
2019-05-19T07:23:29.117Z,10.63
2019-05-19T07:25:58.246Z,9.88
2019-05-19T07:28:27.392Z,9.35
2019-05-19T07:30:56.618Z,10.90
2019-05-19T07:33:25.992Z,12.60
2019-05-19T07:35:55.160Z,10.48
2019-05-19T07:38:24.362Z,9.78
2019-05-19T07:40:53.568Z,8.63
2019-05-19T07:43:22.877Z,11.57
2019-05-19T07:45:52.058Z,9.03
2019-05-19T07:48:21.184Z,11.73
2019-05-19T07:50:50.434Z,9.18
2019-05-19T07:53:19.639Z,9.98
2019-05-19T07:55:48.804Z,11.00
2019-05-19T07:58:18.322Z,11.80
2019-05-19T08:00:47.676Z,8.58
2019-05-19T08:03:16.912Z,14.20
2019-05-19T08:05:46.225Z,10.85
2019-05-19T08:08:15.386Z,11.97
2019-05-19T08:10:44.972Z,9.43
2019-05-19T08:13:14.262Z,10.78
2019-05-19T08:15:43.599Z,10.75
2019-05-19T08:18:12.834Z,8.60
2019-05-19T08:20:41.991Z,9.08
2019-05-19T08:23:11.289Z,9.93
2019-05-19T08:25:40.641Z,18.02
2019-05-19T08:28:10.033Z,9.48
2019-05-19T08:30:39.429Z,7.78
2019-05-19T08:33:08.747Z,8.45
2019-05-19T08:35:37.921Z,7.10
2019-05-19T08:38:07.182Z,6.50
2019-05-19T08:40:36.389Z,6.47
2019-05-19T08:43:05.801Z,9.35
2019-05-19T08:45:35.016Z,6.20
2019-05-19T08:48:04.243Z,9.25
2019-05-19T08:50:33.486Z,9.10
2019-05-19T08:53:03.419Z,10.40
2019-05-19T08:55:32.655Z,6.10
2019-05-19T08:58:01.868Z,6.95
2019-05-19T09:00:34.953Z,6.47
2019-05-19T09:03:03.631Z,4.58
2019-05-19T09:05:32.856Z,7.05
2019-05-19T09:08:02.293Z,4.62
2019-05-19T09:10:31.822Z,4.20
2019-05-19T09:13:00.966Z,5.08
2019-05-19T09:15:30.122Z,6.22
2019-05-19T09:17:59.361Z,6.85
2019-05-19T09:20:28.618Z,4.72
2019-05-19T09:22:57.994Z,4.83
2019-05-19T09:25:28.306Z,4.75
2019-05-19T09:27:57.327Z,4.10
2019-05-19T09:30:26.657Z,6.22
2019-05-19T09:32:58.411Z,5.70
2019-05-19T09:35:29.445Z,11.08
2019-05-19T09:40:28.867Z,6.33
2019-05-19T09:42:58.201Z,7.15
2019-05-19T09:45:27.426Z,4.90
2019-05-19T09:47:56.873Z,6.15
2019-05-19T09:50:28.050Z,6.85
2019-05-19T09:52:59.122Z,5.45
2019-05-19T09:55:32.961Z,6.45
2019-05-19T09:58:15.793Z,5.55
2019-05-19T10:00:47.079Z,6.72
2019-05-19T10:03:24.117Z,7.22
2019-05-19T10:05:54.489Z,5.08
2019-05-19T10:08:29.065Z,6.37
2019-05-19T10:11:09.451Z,5.97
2019-05-19T10:13:40.105Z,8.30
2019-05-19T10:16:16.834Z,3.90
2019-05-19T10:18:42.521Z,4.42
2019-05-19T10:21:11.865Z,6.30
2019-05-19T10:23:41.993Z,5.75
2019-05-19T10:26:11.291Z,8.33
2019-05-19T10:28:40.450Z,5.25
2019-05-19T10:31:09.719Z,6.40
2019-05-19T10:33:38.989Z,9.43
2019-05-19T10:36:09.893Z,6.97
2019-05-19T10:38:39.828Z,6.33
2019-05-19T10:41:09.094Z,9.65
2019-05-19T10:43:38.445Z,5.50
2019-05-19T10:46:07.564Z,4.90
2019-05-19T10:48:37.914Z,5.65
2019-05-19T10:51:07.107Z,7.72
2019-05-19T10:53:36.259Z,5.90
2019-05-19T10:56:06.463Z,7.83
2019-05-19T10:58:35.737Z,5.83
2019-05-19T11:01:05.037Z,6.08
2019-05-19T11:03:34.376Z,6.85
2019-05-19T11:06:03.760Z,8.15
2019-05-19T11:08:33.453Z,8.60
2019-05-19T11:11:02.589Z,11.30
2019-05-19T11:13:31.715Z,10.65
2019-05-19T11:16:00.991Z,7.55
2019-05-19T11:18:30.111Z,9.25
2019-05-19T11:20:59.323Z,7.15
2019-05-19T11:23:28.727Z,6.92
2019-05-19T11:25:58.067Z,8.98
2019-05-19T11:28:27.269Z,6.83
2019-05-19T11:30:56.604Z,8.95
2019-05-19T11:33:25.844Z,6.62
2019-05-19T11:35:55.022Z,9.13
2019-05-19T11:38:24.153Z,9.35
2019-05-19T11:40:54.781Z,11.73
2019-05-19T11:43:24.048Z,9.90
2019-05-19T11:45:53.237Z,8.25
2019-05-19T11:48:22.455Z,7.85
2019-05-19T11:50:51.742Z,9.23
2019-05-19T11:53:20.942Z,5.67
2019-05-19T11:55:50.180Z,7.95
2019-05-19T11:58:19.493Z,7.72
2019-05-19T12:00:48.733Z,8.55
2019-05-19T12:03:17.901Z,6.33
2019-05-19T12:05:47.069Z,9.65
2019-05-19T12:08:16.341Z,6.22
2019-05-19T12:10:45.534Z,8.23
2019-05-19T12:13:14.725Z,8.20
2019-05-19T12:15:44.044Z,6.95
2019-05-19T12:18:19.638Z,8.28
2019-05-19T12:20:50.083Z,9.63
2019-05-19T12:23:21.397Z,7.83
2019-05-19T12:28:47.702Z,7.55
2019-05-19T12:31:16.822Z,8.73
2019-05-19T12:33:51.878Z,11.12
2019-05-19T12:36:16.844Z,10.05
2019-05-19T12:38:45.996Z,9.30
2019-05-19T12:41:15.101Z,13.20
2019-05-19T12:43:45.973Z,9.33
2019-05-19T12:46:16.748Z,8.63
2019-05-19T12:48:46.210Z,10.85
2019-05-19T12:51:15.457Z,8.73
2019-05-19T12:53:44.704Z,9.80
2019-05-19T12:56:13.952Z,9.00
2019-05-19T12:58:43.079Z,8.90
2019-05-19T13:01:12.197Z,12.28
2019-05-19T13:03:41.376Z,10.60
2019-05-19T13:06:10.609Z,8.00
2019-05-19T13:08:39.917Z,12.33
2019-05-19T13:11:09.279Z,7.35
2019-05-19T13:13:38.569Z,12.20
2019-05-19T13:16:07.789Z,9.58
2019-05-19T13:18:36.987Z,9.00
2019-05-19T13:21:06.112Z,9.35
2019-05-19T13:23:35.367Z,16.12
2019-05-19T13:26:04.659Z,12.47
2019-05-19T13:28:34.091Z,12.73
2019-05-19T13:31:03.607Z,12.07
2019-05-19T13:33:32.878Z,11.18
2019-05-19T13:36:02.113Z,11.10
2019-05-19T13:38:31.381Z,11.12
2019-05-19T13:41:00.546Z,10.90
2019-05-19T13:43:29.783Z,10.28
2019-05-19T13:45:59.288Z,11.18
2019-05-19T13:48:28.904Z,15.78
2019-05-19T13:50:58.331Z,11.15
2019-05-19T13:53:27.500Z,9.40
2019-05-19T13:55:56.838Z,9.68
2019-05-19T13:58:25.928Z,15.75
2019-05-19T14:00:55.170Z,13.08
2019-05-19T14:03:24.680Z,14.28
2019-05-19T14:05:54.033Z,13.45
2019-05-19T14:08:23.185Z,16.12
2019-05-19T14:10:52.465Z,14.20
2019-05-19T14:13:21.722Z,18.82
2019-05-19T14:15:50.833Z,16.85
2019-05-19T14:18:20.088Z,20.60
2019-05-19T14:20:49.271Z,40.03
2019-05-19T14:23:18.460Z,19.23
2019-05-19T14:25:47.781Z,20.08
2019-05-19T14:28:16.998Z,17.55
2019-05-19T14:30:46.114Z,17.23
2019-05-19T14:33:15.416Z,17.70
2019-05-19T14:35:44.625Z,22.02
2019-05-19T14:38:13.895Z,19.55
2019-05-19T14:40:44.185Z,19.85
2019-05-19T14:43:14.488Z,16.45
2019-05-19T14:45:43.677Z,18.67
2019-05-19T14:48:12.880Z,18.77
2019-05-19T14:50:41.992Z,19.70
2019-05-19T14:53:11.170Z,18.92
2019-05-19T14:55:43.590Z,16.37
2019-05-19T14:58:12.048Z,18.90
2019-05-19T15:00:41.223Z,19.65
2019-05-19T15:03:10.475Z,18.15
2019-05-19T15:05:39.835Z,13.50
2019-05-19T15:08:09.121Z,18.35
2019-05-19T15:10:38.544Z,16.23
2019-05-19T15:13:07.913Z,20.23
2019-05-19T15:15:45.306Z,15.83
2019-05-19T15:18:10.574Z,18.32
2019-05-19T15:20:39.828Z,20.37
2019-05-19T15:23:08.936Z,18.15
2019-05-19T15:25:57.417Z,18.20
2019-05-19T15:28:26.725Z,22.73
2019-05-19T15:30:55.958Z,20.90
2019-05-19T15:33:25.324Z,16.55
2019-05-19T15:35:54.612Z,25.55
2019-05-19T15:38:23.793Z,19.27
2019-05-19T15:40:52.973Z,17.67
2019-05-19T15:43:22.258Z,21.73
2019-05-19T15:45:51.381Z,24.05
2019-05-19T15:48:20.661Z,22.20
2019-05-19T15:50:49.875Z,23.38
2019-05-19T15:53:19.065Z,21.68
2019-05-19T15:55:48.320Z,20.27
2019-05-19T15:58:17.610Z,22.07
2019-05-19T16:00:46.895Z,17.57
2019-05-19T16:03:16.294Z,17.40
2019-05-19T16:05:45.621Z,19.98
2019-05-19T16:08:16.125Z,17.55
2019-05-19T16:10:47.606Z,19.62
2019-05-19T16:13:16.974Z,18.48
2019-05-19T16:15:46.255Z,14.23
2019-05-19T16:18:15.461Z,18.70
2019-05-19T16:20:44.784Z,19.12
2019-05-19T16:23:14.116Z,17.40
2019-05-19T16:25:43.297Z,15.75
2019-05-19T16:28:12.524Z,15.68
2019-05-19T16:30:41.736Z,17.17
2019-05-19T16:33:10.900Z,23.62
2019-05-19T16:35:40.208Z,16.90
2019-05-19T16:38:09.424Z,19.25
2019-05-19T16:40:38.633Z,19.70
2019-05-19T16:43:07.848Z,15.60
2019-05-19T16:45:37.240Z,18.00
2019-05-19T16:48:06.571Z,17.80
2019-05-19T16:50:35.850Z,16.27
2019-05-19T16:53:05.159Z,17.65
2019-05-19T16:55:34.443Z,18.20
2019-05-19T16:58:19.508Z,18.77
2019-05-19T17:00:34.678Z,17.82
2019-05-19T17:03:03.898Z,15.00
2019-05-19T17:05:33.177Z,17.45
2019-05-19T17:08:02.745Z,39.00
2019-05-19T17:10:33.486Z,19.70
2019-05-19T17:13:02.787Z,19.27
2019-05-19T17:15:31.971Z,20.97
2019-05-19T17:18:03.448Z,20.15
2019-05-19T17:20:32.636Z,27.50
2019-05-19T17:23:01.910Z,27.95
2019-05-19T17:25:31.170Z,28.05
2019-05-19T17:28:00.308Z,24.40
2019-05-19T17:30:29.551Z,28.20
2019-05-19T17:32:58.977Z,21.52
2019-05-19T17:35:28.736Z,22.10
2019-05-19T17:37:57.939Z,21.65
2019-05-19T17:40:27.210Z,24.87
2019-05-19T17:42:56.337Z,38.85
2019-05-19T17:45:25.550Z,48.40
2019-05-19T17:48:08.202Z,38.73
2019-05-19T17:50:33.479Z,59.73
2019-05-19T17:53:03.123Z,37.65
2019-05-19T17:55:34.518Z,22.30
2019-05-19T17:58:04.511Z,22.80
2019-05-19T18:00:41.565Z,25.48
2019-05-19T18:03:12.979Z,21.90
2019-05-19T18:05:42.210Z,17.82
2019-05-19T18:08:12.539Z,20.95
2019-05-19T18:10:41.814Z,20.72
2019-05-19T18:13:10.961Z,19.48
2019-05-19T18:15:41.371Z,19.05
2019-05-19T18:18:10.512Z,19.70
2019-05-19T18:20:39.766Z,18.15
2019-05-19T18:23:09.091Z,16.27
2019-05-19T18:25:38.198Z,16.95
2019-05-19T18:28:07.421Z,15.23
2019-05-19T18:30:36.683Z,18.12
2019-05-19T18:33:05.882Z,14.28
2019-05-19T18:35:35.089Z,15.05
2019-05-19T18:38:04.447Z,17.65
2019-05-19T18:40:33.751Z,14.80
2019-05-19T18:43:03.007Z,13.75
2019-05-19T18:45:32.172Z,14.33
2019-05-19T18:48:01.432Z,14.28
2019-05-19T18:50:31.822Z,15.10
2019-05-19T18:53:01.849Z,17.00
2019-05-19T18:55:30.958Z,14.03
2019-05-19T18:58:00.237Z,12.53
2019-05-19T19:00:34.967Z,10.05
2019-05-19T19:03:05.243Z,15.20
2019-05-19T19:05:41.218Z,11.33
2019-05-19T19:08:10.445Z,14.70
2019-05-19T19:10:39.722Z,13.00
2019-05-19T19:13:08.861Z,11.38
2019-05-19T19:15:38.015Z,10.45
2019-05-19T19:18:07.321Z,13.65
2019-05-19T19:20:36.581Z,12.60
2019-05-19T19:23:05.821Z,9.45
2019-05-19T19:25:34.943Z,10.38
2019-05-19T19:28:04.175Z,10.08
2019-05-19T19:30:38.799Z,10.98
2019-05-19T19:35:43.667Z,8.25
2019-05-19T19:38:14.677Z,9.38
2019-05-19T19:40:43.756Z,15.75
2019-05-19T19:43:13.640Z,7.62
2019-05-19T19:45:43.745Z,8.85
2019-05-19T19:48:13.024Z,8.63
2019-05-19T19:50:42.356Z,10.72
2019-05-19T19:53:11.611Z,8.28
2019-05-19T19:55:40.702Z,6.28
2019-05-19T19:58:10.835Z,8.90
2019-05-19T20:00:44.643Z,11.12
2019-05-19T20:03:14.033Z,9.68
2019-05-19T20:05:43.343Z,6.97
2019-05-19T20:08:12.908Z,7.62
2019-05-19T20:10:42.288Z,9.05
2019-05-19T20:13:11.620Z,8.50
2019-05-19T20:15:40.794Z,9.15
2019-05-19T20:18:09.912Z,9.43
2019-05-19T20:20:39.132Z,7.65
2019-05-19T20:23:08.477Z,6.85
2019-05-19T20:25:37.890Z,6.65
2019-05-19T20:28:07.184Z,4.80
2019-05-19T20:30:36.931Z,8.45
2019-05-19T20:33:06.377Z,7.08
2019-05-19T20:35:35.654Z,7.85
2019-05-19T20:38:04.898Z,7.67
2019-05-19T20:40:34.166Z,10.00
2019-05-19T20:43:03.455Z,8.23
2019-05-19T20:45:33.702Z,6.10
2019-05-19T20:48:03.072Z,6.63
2019-05-19T20:50:32.488Z,8.50
2019-05-19T20:53:01.892Z,7.90
2019-05-19T20:55:31.315Z,7.97
2019-05-19T20:58:00.458Z,7.37
2019-05-19T21:00:31.629Z,11.55
2019-05-19T21:05:29.067Z,8.03
2019-05-19T21:07:58.146Z,8.43
2019-05-19T21:10:27.332Z,4.30
2019-05-19T21:12:57.609Z,5.87
2019-05-19T21:15:26.936Z,6.00
2019-05-19T21:17:56.145Z,7.60
2019-05-19T21:20:25.507Z,6.62
2019-05-19T21:22:54.675Z,7.92
2019-05-19T21:25:23.863Z,5.58
2019-05-19T21:27:53.042Z,7.70
2019-05-19T21:30:22.167Z,8.28
2019-05-19T21:32:51.323Z,6.85
2019-05-19T21:35:20.528Z,5.17
2019-05-19T21:37:51.240Z,6.03
2019-05-19T21:40:20.420Z,5.58
2019-05-19T21:42:49.642Z,6.75
2019-05-19T21:45:20.732Z,4.33
2019-05-19T21:47:49.876Z,6.53
2019-05-19T21:50:19.393Z,6.17
2019-05-19T21:52:48.663Z,4.50
2019-05-19T21:55:17.864Z,12.55
2019-05-19T21:57:47.155Z,8.00
2019-05-19T22:00:17.202Z,6.15
2019-05-19T22:02:46.712Z,7.47
2019-05-19T22:05:16.045Z,5.92
2019-05-19T22:07:59.051Z,8.03
2019-05-19T22:10:28.393Z,9.05
2019-05-19T22:12:57.636Z,6.58
2019-05-19T22:15:27.002Z,8.40
2019-05-19T22:17:58.053Z,8.63
2019-05-19T22:20:27.271Z,4.37
2019-05-19T22:22:56.397Z,5.42
2019-05-19T22:25:25.579Z,5.53
2019-05-19T22:27:54.833Z,5.00
2019-05-19T22:30:24.160Z,3.92
2019-05-19T22:32:53.829Z,5.12
2019-05-19T22:35:22.906Z,5.67
2019-05-19T22:37:52.108Z,7.20
2019-05-19T22:40:21.356Z,4.65
2019-05-19T22:42:50.500Z,6.67
2019-05-19T22:45:19.683Z,6.53
2019-05-19T22:47:49.828Z,4.72
2019-05-19T22:50:19.166Z,4.25
2019-05-19T22:52:48.386Z,11.15
2019-05-19T22:55:18.356Z,4.58
2019-05-19T22:57:47.656Z,4.37
2019-05-19T23:00:17.721Z,5.30
2019-05-19T23:02:46.898Z,9.10
2019-05-19T23:05:16.475Z,9.40
2019-05-19T23:07:45.668Z,5.80
2019-05-19T23:10:15.798Z,3.87
2019-05-19T23:12:45.078Z,4.70
2019-05-19T23:15:15.543Z,4.87
2019-05-19T23:17:44.664Z,5.28
2019-05-19T23:20:15.138Z,5.85
2019-05-19T23:22:44.309Z,3.80
2019-05-19T23:25:13.768Z,4.30
2019-05-19T23:27:43.168Z,4.10
2019-05-19T23:30:13.414Z,7.70
2019-05-19T23:32:42.790Z,7.33
2019-05-19T23:35:12.413Z,4.35
2019-05-19T23:37:41.673Z,5.35
2019-05-19T23:40:12.248Z,3.37
2019-05-19T23:42:41.453Z,4.92
2019-05-19T23:45:11.211Z,8.25
2019-05-19T23:47:40.339Z,11.95
2019-05-19T23:50:10.839Z,7.65
2019-05-19T23:52:39.906Z,6.78
2019-05-19T23:55:09.465Z,4.90
2019-05-19T23:57:38.606Z,5.17
